createdAt,value
2024-02-06T00:00:41.137Z,37.20
2024-02-06T00:03:08.188Z,37.30
2024-02-06T00:05:35.103Z,37.40
2024-02-06T00:08:02.044Z,37.50
2024-02-06T00:10:28.927Z,37.60
2024-02-06T00:12:55.838Z,37.90
2024-02-06T00:15:22.714Z,37.90
2024-02-06T00:17:49.602Z,38.10
2024-02-06T00:20:20.893Z,38.40
2024-02-06T00:22:48.079Z,38.40
2024-02-06T00:25:14.979Z,38.40
2024-02-06T00:27:41.820Z,38.40
2024-02-06T00:30:09.167Z,38.60
2024-02-06T00:32:36.155Z,38.60
2024-02-06T00:35:03.174Z,38.60
2024-02-06T00:37:33.349Z,38.80
2024-02-06T00:40:00.514Z,39.00
2024-02-06T00:42:28.590Z,38.90
2024-02-06T00:44:55.430Z,39.00
2024-02-06T00:47:23.017Z,39.10
2024-02-06T00:49:50.317Z,39.20
2024-02-06T00:52:17.314Z,39.10
2024-02-06T00:54:44.241Z,39.30
2024-02-06T00:57:11.220Z,39.40
2024-02-06T00:59:37.998Z,39.50
2024-02-06T01:02:05.109Z,39.50
2024-02-06T01:04:32.136Z,39.50
2024-02-06T01:06:59.229Z,39.70
2024-02-06T01:09:26.178Z,39.60
2024-02-06T01:11:52.980Z,39.80
2024-02-06T01:14:19.735Z,39.90
2024-02-06T01:16:46.471Z,39.70
2024-02-06T01:19:13.498Z,39.60
2024-02-06T01:21:40.435Z,39.70
2024-02-06T01:24:07.812Z,39.60
2024-02-06T01:26:34.560Z,39.60
2024-02-06T01:29:01.399Z,39.50
2024-02-06T01:31:28.491Z,39.50
2024-02-06T01:33:55.657Z,39.40
2024-02-06T01:36:22.566Z,39.30
2024-02-06T01:38:51.360Z,39.50
2024-02-06T01:41:18.347Z,39.40
2024-02-06T01:43:45.240Z,39.30
2024-02-06T01:46:12.365Z,39.30
2024-02-06T01:48:39.311Z,39.30
2024-02-06T01:51:08.424Z,39.10
2024-02-06T01:53:36.399Z,39.20
2024-02-06T01:56:04.190Z,38.70
2024-02-06T01:58:31.180Z,38.70
2024-02-06T02:00:58.801Z,38.70
2024-02-06T02:03:27.946Z,38.70
2024-02-06T02:05:55.291Z,38.70
2024-02-06T02:08:25.836Z,38.70
2024-02-06T02:10:53.032Z,38.70
2024-02-06T02:13:19.930Z,38.50
2024-02-06T02:15:46.857Z,38.30
2024-02-06T02:18:13.790Z,38.30
2024-02-06T02:20:42.045Z,38.30
2024-02-06T02:23:19.275Z,38.00
2024-02-06T02:25:49.850Z,38.10
2024-02-06T02:28:16.958Z,38.00
2024-02-06T02:30:44.773Z,38.10
2024-02-06T02:33:12.342Z,38.60
2024-02-06T02:35:39.101Z,38.10
2024-02-06T02:38:05.854Z,37.80
2024-02-06T02:40:32.722Z,37.60
2024-02-06T02:42:59.996Z,37.40
2024-02-06T02:45:27.031Z,37.20
2024-02-06T02:47:53.856Z,36.90
2024-02-06T02:50:20.812Z,36.90
2024-02-06T02:52:47.718Z,36.30
2024-02-06T02:55:14.670Z,35.90
2024-02-06T02:57:41.546Z,35.70
2024-02-06T03:00:09.421Z,35.20
2024-02-06T03:02:36.197Z,35.20
2024-02-06T03:05:03.747Z,35.10
2024-02-06T03:07:30.650Z,35.00
2024-02-06T03:09:57.945Z,34.80
2024-02-06T03:12:32.609Z,34.70
2024-02-06T03:15:08.839Z,34.90
2024-02-06T03:17:35.674Z,35.00
2024-02-06T03:20:06.147Z,35.10
2024-02-06T03:22:35.849Z,35.40
2024-02-06T03:25:02.877Z,36.40
2024-02-06T03:27:29.860Z,35.90
2024-02-06T03:29:58.949Z,36.00
2024-02-06T03:32:25.811Z,36.20
2024-02-06T03:34:52.755Z,36.30
2024-02-06T03:37:19.713Z,36.40
2024-02-06T03:39:46.557Z,36.70
2024-02-06T03:42:13.483Z,36.70
2024-02-06T03:44:40.656Z,36.90
2024-02-06T03:47:07.476Z,36.80
2024-02-06T03:49:34.265Z,36.90
2024-02-06T03:52:01.159Z,37.10
2024-02-06T03:54:29.928Z,37.20
2024-02-06T03:56:56.771Z,37.40
2024-02-06T03:59:23.580Z,37.20
2024-02-06T04:01:50.577Z,37.20
2024-02-06T04:04:17.477Z,37.10
2024-02-06T04:06:44.609Z,37.10
2024-02-06T04:09:11.751Z,37.00
2024-02-06T04:11:38.559Z,37.10
2024-02-06T04:14:05.339Z,37.10
2024-02-06T04:16:32.165Z,37.10
2024-02-06T04:18:59.096Z,37.20
2024-02-06T04:21:25.912Z,37.10
2024-02-06T04:23:52.837Z,37.50
2024-02-06T04:26:19.630Z,38.00
2024-02-06T04:28:46.480Z,38.40
2024-02-06T04:31:13.324Z,38.70
2024-02-06T04:33:40.525Z,39.10
2024-02-06T04:36:07.643Z,39.30
2024-02-06T04:38:34.422Z,39.90
2024-02-06T04:41:01.180Z,40.10
2024-02-06T04:43:29.227Z,40.70
2024-02-06T04:45:56.619Z,41.20
2024-02-06T04:48:23.611Z,41.40
2024-02-06T04:50:50.413Z,42.30
2024-02-06T04:53:17.206Z,42.90
2024-02-06T04:55:44.199Z,43.30
2024-02-06T04:58:11.108Z,43.40
2024-02-06T05:00:38.168Z,43.90
2024-02-06T05:03:05.242Z,44.00
2024-02-06T05:05:32.049Z,44.00
2024-02-06T05:07:59.085Z,44.10
2024-02-06T05:10:26.071Z,44.30
2024-02-06T05:12:53.071Z,44.30
2024-02-06T05:15:19.894Z,45.00
2024-02-06T05:17:47.522Z,45.30
2024-02-06T05:20:15.107Z,45.90
2024-02-06T05:22:42.242Z,46.30
2024-02-06T05:25:10.398Z,46.60
2024-02-06T05:27:37.284Z,47.00
2024-02-06T05:30:06.689Z,47.60
2024-02-06T05:32:36.304Z,48.30
2024-02-06T05:35:04.853Z,48.90
2024-02-06T05:37:32.388Z,49.60
2024-02-06T05:39:59.576Z,49.80
2024-02-06T05:42:26.465Z,50.20
2024-02-06T05:44:53.303Z,50.20
2024-02-06T05:47:20.166Z,50.50
2024-02-06T05:49:49.223Z,50.90
2024-02-06T05:52:16.325Z,51.10
2024-02-06T05:54:43.217Z,51.40
2024-02-06T05:57:10.318Z,51.60
2024-02-06T05:59:37.088Z,51.80
2024-02-06T06:02:04.824Z,52.40
2024-02-06T06:04:31.870Z,52.70
2024-02-06T06:06:59.027Z,53.10
2024-02-06T06:09:25.867Z,53.70
2024-02-06T06:11:52.785Z,54.10
2024-02-06T06:14:19.814Z,54.20
2024-02-06T06:16:46.720Z,54.50
2024-02-06T06:19:14.199Z,55.00
2024-02-06T06:21:43.757Z,55.50
2024-02-06T06:24:11.192Z,55.60
2024-02-06T06:26:38.805Z,55.70
2024-02-06T06:29:06.270Z,55.70
2024-02-06T06:31:33.192Z,56.20
2024-02-06T06:34:00.289Z,56.40
2024-02-06T06:36:27.853Z,56.70
2024-02-06T06:38:56.225Z,56.80
2024-02-06T06:41:25.736Z,57.20
2024-02-06T06:43:53.334Z,57.40
2024-02-06T06:46:20.547Z,57.60
2024-02-06T06:48:47.408Z,57.90
2024-02-06T06:51:14.374Z,57.90
2024-02-06T06:53:41.312Z,57.90
2024-02-06T06:56:17.182Z,58.00
2024-02-06T06:58:45.908Z,57.90
2024-02-06T07:01:12.818Z,57.50
2024-02-06T07:03:40.589Z,57.60
2024-02-06T07:06:08.522Z,57.50
2024-02-06T07:08:36.070Z,57.90
2024-02-06T07:11:03.544Z,57.80
2024-02-06T07:13:30.724Z,58.30
2024-02-06T07:15:57.771Z,58.40
2024-02-06T07:18:24.858Z,58.70
2024-02-06T07:20:51.816Z,58.80
2024-02-06T07:23:18.977Z,58.80
2024-02-06T07:25:46.364Z,58.90
2024-02-06T07:28:13.303Z,58.70
2024-02-06T07:30:41.106Z,58.80
2024-02-06T07:33:09.131Z,58.70
2024-02-06T07:35:36.134Z,58.90
2024-02-06T07:38:06.331Z,58.70
2024-02-06T07:40:35.599Z,58.90
2024-02-06T07:43:02.858Z,58.60
2024-02-06T07:45:29.783Z,58.80
2024-02-06T07:47:56.777Z,59.70
2024-02-06T07:50:23.684Z,58.40
2024-02-06T07:52:50.699Z,58.00
2024-02-06T07:55:17.729Z,57.10
2024-02-06T07:57:44.502Z,55.60
2024-02-06T08:00:12.092Z,54.70
2024-02-06T08:02:38.995Z,54.50
2024-02-06T08:05:08.628Z,53.90
2024-02-06T08:07:36.932Z,52.30
2024-02-06T08:10:05.096Z,51.00
2024-02-06T08:12:33.892Z,50.10
2024-02-06T08:15:03.196Z,50.00
2024-02-06T08:17:30.127Z,49.10
2024-02-06T08:19:58.129Z,48.10
2024-02-06T08:22:25.366Z,46.30
2024-02-06T08:24:52.235Z,47.60
2024-02-06T08:27:19.124Z,46.10
2024-02-06T08:29:45.883Z,45.70
2024-02-06T08:32:15.742Z,44.60
2024-02-06T08:34:42.692Z,43.70
2024-02-06T08:37:09.815Z,43.70
2024-02-06T08:39:36.847Z,42.60
2024-02-06T08:42:03.952Z,42.60
2024-02-06T08:44:31.984Z,42.00
2024-02-06T08:46:59.199Z,41.80
2024-02-06T08:49:26.349Z,41.00
2024-02-06T08:51:53.280Z,40.70
2024-02-06T08:54:23.499Z,40.30
2024-02-06T08:56:53.627Z,40.00
2024-02-06T08:59:20.661Z,40.00
2024-02-06T09:01:47.768Z,40.30
2024-02-06T09:04:15.933Z,40.60
2024-02-06T09:06:42.896Z,39.30
2024-02-06T09:09:10.283Z,39.20
2024-02-06T09:11:37.212Z,39.20
2024-02-06T09:14:04.376Z,39.80
2024-02-06T09:16:31.236Z,39.00
2024-02-06T09:18:59.416Z,39.20
2024-02-06T09:21:27.159Z,39.20
2024-02-06T09:23:53.937Z,38.60
2024-02-06T09:26:20.729Z,38.50
2024-02-06T09:28:47.593Z,38.60
2024-02-06T09:31:15.582Z,38.00
2024-02-06T09:33:43.461Z,38.60
2024-02-06T09:36:10.659Z,37.70
2024-02-06T09:38:38.604Z,37.90
2024-02-06T09:41:12.095Z,37.50
2024-02-06T09:43:43.939Z,37.30
2024-02-06T09:46:11.017Z,37.70
2024-02-06T09:48:37.904Z,37.40
2024-02-06T09:51:05.516Z,37.60
2024-02-06T09:53:33.746Z,37.10
2024-02-06T09:56:01.877Z,36.70
2024-02-06T09:58:29.467Z,36.90
2024-02-06T10:00:56.888Z,36.60
2024-02-06T10:03:29.785Z,36.30
2024-02-06T10:06:00.393Z,36.90
2024-02-06T10:08:27.500Z,36.80
2024-02-06T10:10:55.740Z,36.00
2024-02-06T10:13:23.212Z,36.50
2024-02-06T10:15:50.654Z,36.30
2024-02-06T10:18:17.817Z,36.10
2024-02-06T10:20:45.722Z,35.40
2024-02-06T10:23:17.359Z,34.80
2024-02-06T10:25:49.881Z,34.60
2024-02-06T10:28:26.768Z,34.10
2024-02-06T10:30:53.976Z,34.30
2024-02-06T10:33:21.581Z,34.40
2024-02-06T10:35:50.073Z,35.10
2024-02-06T10:38:18.260Z,35.60
2024-02-06T10:40:47.255Z,35.30
2024-02-06T10:45:46.063Z,35.10
2024-02-06T10:48:16.820Z,35.00
2024-02-06T10:50:44.557Z,34.50
2024-02-06T10:53:12.027Z,35.00
2024-02-06T10:55:39.537Z,35.60
2024-02-06T10:58:08.431Z,35.90
2024-02-06T11:00:38.167Z,35.90
2024-02-06T11:03:10.320Z,36.30
2024-02-06T11:05:55.828Z,37.70
2024-02-06T11:08:25.662Z,38.20
2024-02-06T11:10:57.796Z,38.80
2024-02-06T11:13:24.738Z,39.10
2024-02-06T11:15:54.059Z,39.50
2024-02-06T11:18:23.455Z,39.70
2024-02-06T11:20:53.765Z,39.70
2024-02-06T11:23:22.107Z,39.90
2024-02-06T11:25:50.233Z,40.30
2024-02-06T11:28:18.348Z,40.60
2024-02-06T11:30:46.106Z,40.80
2024-02-06T11:33:15.908Z,40.60
2024-02-06T11:35:43.022Z,40.90
2024-02-06T11:38:10.069Z,41.10
2024-02-06T11:40:36.986Z,41.20
2024-02-06T11:43:08.446Z,41.00
2024-02-06T11:45:36.890Z,41.00
2024-02-06T11:48:06.628Z,40.80
2024-02-06T11:50:42.750Z,40.80
2024-02-06T11:53:12.437Z,41.00
2024-02-06T11:55:39.663Z,41.00
2024-02-06T11:58:07.334Z,40.90
2024-02-06T12:00:34.286Z,41.10
2024-02-06T12:03:01.298Z,41.10
2024-02-06T12:05:28.574Z,40.50
2024-02-06T12:07:57.312Z,40.60
2024-02-06T12:10:31.889Z,40.80
2024-02-06T12:13:05.644Z,40.80
2024-02-06T12:15:34.139Z,41.00
2024-02-06T12:18:08.229Z,41.20
2024-02-06T12:20:36.383Z,41.00
2024-02-06T12:23:08.401Z,40.80
2024-02-06T12:25:41.966Z,40.70
2024-02-06T12:28:14.425Z,40.40
2024-02-06T12:30:46.424Z,40.50
2024-02-06T12:33:13.897Z,40.80
2024-02-06T12:35:40.946Z,40.70
2024-02-06T12:38:11.115Z,40.60
2024-02-06T12:40:38.695Z,41.00
2024-02-06T12:43:08.598Z,40.70
2024-02-06T12:45:36.393Z,40.60
2024-02-06T12:48:04.700Z,40.70
2024-02-06T12:50:32.390Z,40.50
2024-02-06T12:53:00.738Z,40.50
2024-02-06T12:55:30.788Z,40.20
2024-02-06T12:58:00.658Z,40.00
2024-02-06T13:00:27.891Z,39.80
2024-02-06T13:03:02.768Z,40.10
2024-02-06T13:05:32.801Z,40.10
2024-02-06T13:08:17.246Z,39.90
2024-02-06T13:10:44.314Z,39.80
2024-02-06T13:13:11.919Z,39.80
2024-02-06T13:15:39.086Z,39.70
2024-02-06T13:18:06.908Z,39.60
2024-02-06T13:20:39.030Z,39.90
2024-02-06T13:23:17.889Z,39.90
2024-02-06T13:25:45.083Z,40.00
2024-02-06T13:28:12.280Z,39.90
2024-02-06T13:30:39.486Z,40.00
2024-02-06T13:33:10.096Z,39.00
2024-02-06T13:35:37.327Z,39.00
2024-02-06T13:38:05.255Z,39.10
2024-02-06T13:40:32.826Z,39.00
2024-02-06T13:43:00.510Z,38.90
2024-02-06T13:45:27.764Z,38.60
2024-02-06T13:47:54.777Z,38.80
2024-02-06T13:50:23.040Z,38.80
2024-02-06T13:52:50.419Z,38.60
2024-02-06T13:55:17.676Z,38.80
2024-02-06T13:57:44.717Z,38.40
2024-02-06T14:00:14.732Z,38.40
2024-02-06T14:02:42.620Z,38.40
2024-02-06T14:05:10.554Z,38.30
2024-02-06T14:07:37.881Z,38.30
2024-02-06T14:10:05.424Z,38.10
2024-02-06T14:12:40.650Z,38.20
2024-02-06T14:15:14.217Z,38.30
2024-02-06T14:17:43.134Z,38.10
2024-02-06T14:20:10.632Z,39.00
2024-02-06T14:22:38.134Z,39.40
2024-02-06T14:25:06.230Z,39.60
2024-02-06T14:27:33.292Z,40.60
2024-02-06T14:30:00.775Z,40.70
2024-02-06T14:32:27.784Z,40.20
2024-02-06T14:34:56.452Z,40.50
2024-02-06T14:37:23.329Z,40.50
2024-02-06T14:39:50.605Z,40.30
2024-02-06T14:42:19.410Z,40.40
2024-02-06T14:44:51.372Z,40.40
2024-02-06T14:47:19.590Z,40.30
2024-02-06T14:49:47.191Z,40.40
2024-02-06T14:52:15.157Z,40.60
2024-02-06T14:54:42.297Z,40.50
2024-02-06T14:57:25.983Z,40.50
2024-02-06T14:59:54.812Z,40.40
2024-02-06T15:02:21.763Z,40.60
2024-02-06T15:04:48.656Z,40.50
2024-02-06T15:09:58.893Z,40.60
2024-02-06T15:12:25.795Z,40.90
2024-02-06T15:14:53.005Z,41.10
2024-02-06T15:17:19.989Z,41.20
2024-02-06T15:19:50.025Z,41.30
2024-02-06T15:22:17.711Z,41.20
2024-02-06T15:24:45.055Z,41.40
2024-02-06T15:27:12.057Z,41.60
2024-02-06T15:29:39.785Z,42.30
2024-02-06T15:32:08.542Z,41.90
2024-02-06T15:34:37.122Z,42.10
2024-02-06T15:37:05.859Z,42.10
2024-02-06T15:39:33.090Z,42.20
2024-02-06T15:42:00.010Z,42.50
2024-02-06T15:44:26.926Z,42.60
2024-02-06T15:46:56.572Z,42.90
2024-02-06T15:49:24.129Z,43.00
2024-02-06T15:51:51.313Z,43.00
2024-02-06T15:54:18.209Z,43.30
2024-02-06T15:56:45.111Z,43.50
2024-02-06T16:02:38.796Z,43.80
2024-02-06T16:05:07.095Z,43.70
2024-02-06T16:07:35.845Z,44.10
2024-02-06T16:10:05.209Z,44.30
2024-02-06T16:12:41.478Z,44.40
2024-02-06T16:15:16.812Z,44.40
2024-02-06T16:18:10.279Z,44.60
2024-02-06T16:20:37.207Z,44.80
2024-02-06T16:23:04.330Z,45.00
2024-02-06T16:25:31.140Z,45.10
2024-02-06T16:27:58.182Z,45.20
2024-02-06T16:30:26.166Z,45.40
2024-02-06T16:36:01.817Z,46.00
2024-02-06T16:38:29.118Z,46.00
2024-02-06T16:40:56.134Z,46.40
2024-02-06T16:43:27.288Z,46.50
2024-02-06T16:45:55.697Z,46.70
2024-02-06T16:48:22.734Z,46.90
2024-02-06T16:50:49.808Z,47.60
2024-02-06T16:53:16.735Z,47.40
2024-02-06T16:55:45.278Z,47.50
2024-02-06T16:58:12.184Z,47.50
2024-02-06T17:00:39.611Z,47.70
2024-02-06T17:03:06.652Z,48.00
2024-02-06T17:05:33.845Z,48.10
2024-02-06T17:08:12.528Z,48.30
2024-02-06T17:11:11.295Z,48.30
2024-02-06T17:13:40.109Z,48.60
2024-02-06T17:16:19.583Z,48.80
2024-02-06T17:18:46.724Z,49.00
2024-02-06T17:21:16.649Z,49.20
2024-02-06T17:23:46.511Z,49.20
2024-02-06T17:26:44.084Z,49.20
2024-02-06T17:29:10.956Z,49.70
2024-02-06T17:31:37.975Z,49.50
2024-02-06T17:34:36.177Z,49.60
2024-02-06T17:37:40.877Z,49.70
2024-02-06T17:40:23.315Z,49.90
2024-02-06T17:43:14.082Z,50.20
2024-02-06T17:45:41.192Z,50.60
2024-02-06T17:48:35.455Z,51.40
2024-02-06T17:51:18.419Z,51.30
2024-02-06T17:54:21.135Z,51.20
2024-02-06T17:57:08.021Z,51.30
2024-02-06T18:00:54.906Z,51.80
2024-02-06T18:08:26.227Z,52.20
2024-02-06T19:59:08.051Z,55.20
2024-02-06T20:01:34.896Z,55.20
2024-02-06T20:04:03.512Z,55.50
2024-02-06T20:06:30.931Z,55.50
2024-02-06T20:09:02.654Z,55.60
2024-02-06T20:11:33.522Z,55.50
2024-02-06T20:14:01.396Z,55.80
2024-02-06T20:16:28.268Z,56.50
2024-02-06T20:18:55.550Z,55.90
2024-02-06T20:21:30.154Z,55.70
2024-02-06T20:23:58.512Z,54.60
2024-02-06T20:26:25.393Z,54.20
2024-02-06T20:28:56.823Z,54.40
2024-02-06T20:31:26.495Z,54.30
2024-02-06T20:33:58.010Z,54.40
2024-02-06T20:36:24.979Z,54.50
2024-02-06T20:38:51.945Z,54.70
2024-02-06T20:41:19.436Z,54.70
2024-02-06T20:43:46.331Z,54.50
2024-02-06T20:46:13.240Z,54.50
2024-02-06T20:48:40.247Z,54.60
2024-02-06T20:51:07.189Z,54.60
2024-02-06T20:53:33.989Z,54.50
2024-02-06T20:56:00.944Z,54.60
2024-02-06T20:58:27.910Z,54.80
2024-02-06T21:00:55.021Z,55.00
2024-02-06T21:03:21.963Z,55.00
2024-02-06T21:05:49.480Z,55.50
2024-02-06T21:08:16.354Z,55.40
2024-02-06T21:10:43.393Z,55.50
2024-02-06T21:13:10.544Z,55.50
2024-02-06T21:15:37.358Z,55.60
2024-02-06T21:18:04.688Z,55.80
2024-02-06T21:20:31.632Z,55.80
2024-02-06T21:22:58.595Z,55.80
2024-02-06T21:25:25.563Z,55.80
2024-02-06T21:27:52.544Z,55.70
2024-02-06T21:30:21.409Z,55.70
2024-02-06T21:32:48.299Z,55.80
2024-02-06T21:35:15.272Z,55.70
2024-02-06T21:37:42.466Z,55.60
2024-02-06T21:40:09.907Z,56.20
2024-02-06T21:42:38.027Z,55.40
2024-02-06T21:45:05.360Z,55.60
2024-02-06T21:47:33.291Z,55.40
2024-02-06T21:50:00.326Z,55.30
2024-02-06T21:52:27.362Z,55.20
2024-02-06T21:54:54.517Z,55.00
2024-02-06T21:57:27.206Z,55.00
2024-02-06T21:59:54.317Z,55.10
2024-02-06T22:02:21.377Z,55.20
2024-02-06T22:04:53.170Z,55.00
2024-02-06T22:07:21.781Z,55.60
2024-02-06T22:09:49.116Z,54.90
2024-02-06T22:12:15.886Z,54.80
2024-02-06T22:14:45.000Z,54.80
2024-02-06T22:17:30.150Z,54.60
2024-02-06T22:20:13.369Z,54.60
2024-02-06T22:26:13.439Z,54.40
2024-02-06T22:29:04.654Z,54.40
2024-02-06T22:32:43.384Z,54.40
2024-02-06T22:35:05.197Z,54.50
2024-02-06T22:44:02.473Z,54.30
2024-02-06T22:46:50.639Z,54.40
2024-02-06T22:49:48.298Z,54.50
2024-02-06T22:52:48.179Z,54.70
2024-02-06T22:56:01.326Z,55.00
2024-02-06T22:58:28.335Z,55.30
2024-02-06T23:00:55.637Z,55.40
2024-02-06T23:03:31.263Z,55.60
2024-02-06T23:09:14.938Z,55.70
2024-02-06T23:11:42.209Z,56.10
2024-02-06T23:14:12.063Z,56.10
2024-02-06T23:16:48.005Z,56.20
2024-02-06T23:19:18.327Z,56.40
2024-02-06T23:22:30.288Z,56.60
2024-02-06T23:25:27.529Z,56.80
2024-02-06T23:28:00.711Z,57.10
2024-02-06T23:30:39.649Z,57.20
2024-02-06T23:33:46.260Z,57.60
2024-02-06T23:36:58.755Z,57.50
2024-02-06T23:40:00.996Z,58.00
2024-02-06T23:42:33.326Z,58.30
2024-02-06T23:45:00.186Z,58.50
2024-02-06T23:47:27.344Z,58.30
2024-02-06T23:49:57.756Z,58.70
2024-02-06T23:52:26.835Z,58.80
2024-02-06T23:54:53.591Z,58.80
2024-02-06T23:57:20.507Z,58.70
2024-02-06T23:59:48.834Z,58.90
